createdAt,value
2023-02-28T00:01:16.865Z,8.47
2023-02-28T00:03:43.816Z,8.38
2023-02-28T00:06:11.212Z,8.23
2023-02-28T00:08:39.193Z,8.25
2023-02-28T00:11:11.997Z,8.05
2023-02-28T00:13:41.587Z,8.69
2023-02-28T00:16:14.471Z,8.69
2023-02-28T00:18:41.970Z,8.63
2023-02-28T00:21:09.211Z,8.10
2023-02-28T00:23:37.043Z,8.58
2023-02-28T00:26:04.809Z,8.71
2023-02-28T00:28:31.846Z,8.86
2023-02-28T00:31:01.246Z,9.17
2023-02-28T00:33:29.822Z,8.15
2023-02-28T00:36:07.690Z,8.48
2023-02-28T00:38:37.531Z,8.51
2023-02-28T00:41:07.461Z,8.53
2023-02-28T00:43:36.245Z,8.63
2023-02-28T00:46:04.920Z,8.78
2023-02-28T00:48:32.356Z,8.36
2023-02-28T00:50:59.285Z,8.58
2023-02-28T00:53:26.360Z,8.65
2023-02-28T00:55:53.303Z,8.35
2023-02-28T00:58:20.510Z,8.07
2023-02-28T01:00:50.532Z,8.17
2023-02-28T01:03:20.316Z,8.07
2023-02-28T01:05:48.349Z,8.62
2023-02-28T01:08:17.352Z,8.55
2023-02-28T01:10:44.450Z,8.41
2023-02-28T01:13:12.730Z,8.39
2023-02-28T01:15:46.562Z,8.77
2023-02-28T01:18:13.506Z,8.45
2023-02-28T01:20:40.425Z,7.82
2023-02-28T01:23:07.440Z,8.02
2023-02-28T01:25:37.809Z,8.02
2023-02-28T01:28:06.892Z,7.53
2023-02-28T01:30:34.721Z,8.18
2023-02-28T01:33:01.663Z,7.96
2023-02-28T01:35:28.578Z,7.90
2023-02-28T01:37:55.446Z,7.57
2023-02-28T01:40:23.465Z,8.06
2023-02-28T01:42:50.332Z,8.00
2023-02-28T01:45:27.730Z,8.12
2023-02-28T01:47:59.363Z,8.46
2023-02-28T01:50:30.972Z,8.24
2023-02-28T01:53:05.658Z,8.10
2023-02-28T01:55:33.269Z,8.20
2023-02-28T01:58:05.449Z,8.66
2023-02-28T02:00:33.420Z,8.13
2023-02-28T02:03:06.180Z,8.29
2023-02-28T02:05:33.304Z,8.49
2023-02-28T02:08:11.297Z,7.71
2023-02-28T02:10:44.176Z,8.41
2023-02-28T02:13:43.211Z,8.70
2023-02-28T02:16:28.426Z,8.96
2023-02-28T02:19:05.214Z,8.44
2023-02-28T02:21:40.904Z,8.64
2023-02-28T02:24:48.602Z,8.61
2023-02-28T02:27:19.346Z,8.38
2023-02-28T02:30:08.882Z,8.41
2023-02-28T02:32:50.667Z,7.86
2023-02-28T02:35:30.124Z,7.95
2023-02-28T02:38:09.919Z,7.79
2023-02-28T02:40:44.656Z,8.06
2023-02-28T02:43:26.954Z,8.03
2023-02-28T02:46:03.229Z,7.52
2023-02-28T02:48:34.573Z,7.53
2023-02-28T02:51:06.993Z,7.71
2023-02-28T02:53:38.844Z,8.16
2023-02-28T02:56:08.471Z,8.15
2023-02-28T02:58:43.202Z,8.16
2023-02-28T03:01:18.305Z,8.16
2023-02-28T03:03:47.972Z,8.37
2023-02-28T03:06:16.162Z,8.45
2023-02-28T03:08:43.056Z,8.12
2023-02-28T03:11:15.890Z,8.42
2023-02-28T03:14:00.110Z,8.37
2023-02-28T03:16:58.918Z,8.01
2023-02-28T03:19:39.154Z,7.62
2023-02-28T03:22:24.623Z,7.72
2023-02-28T03:25:07.364Z,7.70
2023-02-28T03:27:55.240Z,7.20
2023-02-28T03:30:24.837Z,6.89
2023-02-28T03:33:14.123Z,6.83
2023-02-28T03:35:51.106Z,7.09
2023-02-28T03:38:24.192Z,6.64
2023-02-28T03:40:59.064Z,7.07
2023-02-28T03:43:36.135Z,6.85
2023-02-28T03:46:10.347Z,7.48
2023-02-28T03:48:44.817Z,6.99
2023-02-28T03:51:17.432Z,7.28
2023-02-28T03:53:56.072Z,7.53
2023-02-28T03:56:28.733Z,7.68
2023-02-28T03:59:01.730Z,7.59
2023-02-28T04:01:35.092Z,7.52
2023-02-28T04:04:03.293Z,6.94
2023-02-28T04:06:33.520Z,6.99
2023-02-28T04:09:01.200Z,7.22
2023-02-28T04:11:36.571Z,6.93
2023-02-28T04:14:04.320Z,7.03
2023-02-28T04:16:35.733Z,7.56
2023-02-28T04:19:08.393Z,7.25
2023-02-28T04:21:41.096Z,7.31
2023-02-28T04:24:14.990Z,7.11
2023-02-28T04:26:45.296Z,7.36
2023-02-28T04:29:14.344Z,7.18
2023-02-28T04:31:41.398Z,7.62
2023-02-28T04:34:08.332Z,7.24
2023-02-28T04:36:35.597Z,7.21
2023-02-28T04:39:02.658Z,6.94
2023-02-28T04:41:32.336Z,7.64
2023-02-28T04:43:59.760Z,7.75
2023-02-28T04:46:26.716Z,7.44
2023-02-28T04:48:55.007Z,6.58
2023-02-28T04:51:21.832Z,7.00
2023-02-28T04:53:49.044Z,7.31
2023-02-28T04:56:18.784Z,7.09
2023-02-28T04:58:45.943Z,6.53
2023-02-28T05:01:46.482Z,5.90
2023-02-28T05:04:13.359Z,6.17
2023-02-28T05:06:40.325Z,6.31
2023-02-28T05:09:07.475Z,6.60
2023-02-28T05:11:36.312Z,6.82
2023-02-28T05:14:10.445Z,7.23
2023-02-28T05:16:37.454Z,7.41
2023-02-28T05:19:05.042Z,7.45
2023-02-28T05:21:49.141Z,7.16
2023-02-28T05:24:16.103Z,6.94
2023-02-28T05:26:44.201Z,7.11
2023-02-28T05:29:11.601Z,7.63
2023-02-28T05:31:39.056Z,8.04
2023-02-28T05:34:06.049Z,8.18
2023-02-28T05:36:33.108Z,7.63
2023-02-28T05:39:00.121Z,7.80
2023-02-28T05:41:27.735Z,7.15
2023-02-28T05:43:54.973Z,7.31
2023-02-28T05:46:21.994Z,7.21
2023-02-28T05:48:49.593Z,7.66
2023-02-28T05:51:17.144Z,7.18
2023-02-28T05:53:44.387Z,7.16
2023-02-28T05:56:11.400Z,7.59
2023-02-28T05:58:38.352Z,7.37
2023-02-28T06:01:35.814Z,7.40
2023-02-28T06:04:05.035Z,7.02
2023-02-28T06:06:32.109Z,6.74
2023-02-28T06:08:59.259Z,7.07
2023-02-28T06:11:29.540Z,7.23
2023-02-28T06:14:00.626Z,7.72
2023-02-28T06:16:29.128Z,7.62
2023-02-28T06:18:58.514Z,7.51
2023-02-28T06:21:26.188Z,7.37
2023-02-28T06:23:53.160Z,7.23
2023-02-28T06:26:20.967Z,7.52
2023-02-28T06:28:48.245Z,7.41
2023-02-28T06:31:17.907Z,7.04
2023-02-28T06:33:46.473Z,7.18
2023-02-28T06:36:15.210Z,6.64
2023-02-28T06:38:42.528Z,6.58
2023-02-28T06:41:10.250Z,6.56
2023-02-28T06:43:41.710Z,6.54
2023-02-28T06:46:11.975Z,6.49
2023-02-28T06:48:38.911Z,6.62
2023-02-28T06:51:08.819Z,7.47
2023-02-28T06:53:36.093Z,7.63
2023-02-28T06:56:14.483Z,7.27
2023-02-28T06:58:41.736Z,7.13
2023-02-28T07:01:09.723Z,7.57
2023-02-28T07:03:37.876Z,8.36
2023-02-28T07:06:06.175Z,8.12
2023-02-28T07:08:34.129Z,7.94
2023-02-28T07:11:01.178Z,7.75
2023-02-28T07:13:28.184Z,7.96
2023-02-28T07:15:56.724Z,7.63
2023-02-28T07:18:23.790Z,7.22
2023-02-28T07:20:51.046Z,7.02
2023-02-28T07:23:18.535Z,7.82
2023-02-28T07:25:46.657Z,8.18
2023-02-28T07:28:14.786Z,8.37
2023-02-28T07:30:42.540Z,8.24
2023-02-28T07:33:10.035Z,7.70
2023-02-28T07:35:37.419Z,7.91
2023-02-28T07:38:04.864Z,7.63
2023-02-28T07:40:31.957Z,6.78
2023-02-28T07:43:01.617Z,7.05
2023-02-28T07:45:29.970Z,7.03
2023-02-28T07:47:57.181Z,7.79
2023-02-28T07:50:26.784Z,8.32
2023-02-28T07:52:54.067Z,7.85
2023-02-28T07:55:20.998Z,7.28
2023-02-28T07:57:47.919Z,7.61
2023-02-28T08:00:15.186Z,8.04
2023-02-28T08:02:42.175Z,8.26
2023-02-28T08:05:10.028Z,7.86
2023-02-28T08:07:37.031Z,8.01
2023-02-28T08:10:06.690Z,7.93
2023-02-28T08:12:33.713Z,8.07
2023-02-28T08:15:00.706Z,8.10
2023-02-28T08:17:28.072Z,8.24
2023-02-28T08:19:54.965Z,8.23
2023-02-28T08:22:21.936Z,7.79
2023-02-28T08:24:48.863Z,8.06
2023-02-28T08:27:15.821Z,7.99
2023-02-28T08:29:42.759Z,8.14
2023-02-28T08:32:23.630Z,7.93
2023-02-28T08:34:55.829Z,8.40
2023-02-28T08:37:22.728Z,8.37
2023-02-28T08:39:49.556Z,8.08
2023-02-28T08:42:16.451Z,8.26
2023-02-28T08:44:43.358Z,7.62
2023-02-28T08:47:10.295Z,7.61
2023-02-28T08:49:38.759Z,7.62
2023-02-28T08:52:05.931Z,7.30
2023-02-28T08:54:34.311Z,7.41
2023-02-28T08:57:01.506Z,7.75
2023-02-28T08:59:28.490Z,7.39
2023-02-28T09:01:55.370Z,7.37
2023-02-28T09:04:24.933Z,7.34
2023-02-28T09:06:52.362Z,7.93
2023-02-28T09:09:19.353Z,7.58
2023-02-28T09:11:46.267Z,7.41
2023-02-28T09:14:13.170Z,7.24
2023-02-28T09:16:40.121Z,8.02
2023-02-28T09:19:07.028Z,8.25
2023-02-28T09:21:34.110Z,8.76
2023-02-28T09:24:01.050Z,9.14
2023-02-28T09:26:34.944Z,8.61
2023-02-28T09:29:09.981Z,9.27
2023-02-28T09:31:36.966Z,8.77
2023-02-28T09:34:05.833Z,8.48
2023-02-28T09:36:43.711Z,8.19
2023-02-28T09:39:13.145Z,8.58
2023-02-28T09:41:53.444Z,8.68
2023-02-28T09:44:26.343Z,8.70
2023-02-28T09:47:00.711Z,8.71
2023-02-28T09:49:36.926Z,8.20
2023-02-28T09:52:13.256Z,8.06
2023-02-28T09:54:41.531Z,8.22
2023-02-28T09:57:28.679Z,8.15
2023-02-28T10:00:01.705Z,8.37
2023-02-28T10:02:59.322Z,8.37
2023-02-28T10:05:33.160Z,8.35
2023-02-28T10:08:17.109Z,8.47
2023-02-28T10:10:54.561Z,8.05
2023-02-28T10:14:02.619Z,8.32
2023-02-28T10:16:47.482Z,8.37
2023-02-28T10:19:21.310Z,8.17
2023-02-28T10:22:00.175Z,8.27
2023-02-28T10:24:40.352Z,8.16
2023-02-28T10:27:23.644Z,8.11
2023-02-28T10:29:55.409Z,7.99
2023-02-28T10:32:31.373Z,7.83
2023-02-28T10:35:20.790Z,7.20
2023-02-28T10:37:51.021Z,7.99
2023-02-28T10:40:23.422Z,8.23
2023-02-28T10:43:04.667Z,8.14
2023-02-28T10:45:35.852Z,7.77
2023-02-28T10:48:07.142Z,7.84
2023-02-28T10:50:46.082Z,8.15
2023-02-28T10:53:27.121Z,8.44
2023-02-28T10:56:17.547Z,8.45
2023-02-28T10:58:58.837Z,8.36
2023-02-28T11:01:47.339Z,8.61
2023-02-28T11:04:24.094Z,8.14
2023-02-28T11:07:03.112Z,8.53
2023-02-28T11:09:34.704Z,8.77
2023-02-28T11:12:03.632Z,8.53
2023-02-28T11:14:36.508Z,8.30
2023-02-28T11:17:25.494Z,8.67
2023-02-28T11:19:55.794Z,8.17
2023-02-28T11:22:29.921Z,8.51
2023-02-28T11:25:02.530Z,9.18
2023-02-28T11:27:32.515Z,8.88
2023-02-28T11:30:00.910Z,8.11
2023-02-28T11:32:30.108Z,8.26
2023-02-28T11:35:12.284Z,8.43
2023-02-28T11:37:40.543Z,7.53
2023-02-28T11:40:15.750Z,7.70
2023-02-28T11:42:58.857Z,8.02
2023-02-28T11:46:00.204Z,7.92
2023-02-28T11:48:40.843Z,7.54
2023-02-28T11:51:14.636Z,7.89
2023-02-28T11:54:19.043Z,8.29
2023-02-28T11:56:53.047Z,8.47
2023-02-28T11:59:50.330Z,8.35
2023-02-28T12:02:45.461Z,7.94
2023-02-28T12:05:25.673Z,7.96
2023-02-28T12:08:25.229Z,8.37
2023-02-28T12:11:28.266Z,7.89
2023-02-28T12:14:35.885Z,7.92
2023-02-28T12:17:28.891Z,8.43
2023-02-28T12:19:56.532Z,8.18
2023-02-28T12:23:00.727Z,8.51
2023-02-28T12:26:05.983Z,7.81
2023-02-28T12:28:45.492Z,8.05
2023-02-28T12:31:18.132Z,8.06
2023-02-28T12:33:53.607Z,7.85
2023-02-28T12:36:23.148Z,7.76
2023-02-28T12:39:05.674Z,7.98
2023-02-28T12:41:41.414Z,8.24
2023-02-28T12:44:18.091Z,8.44
2023-02-28T12:46:52.291Z,8.52
2023-02-28T12:49:26.909Z,8.73
2023-02-28T12:51:54.315Z,8.44
2023-02-28T12:54:33.146Z,8.52
2023-02-28T12:57:12.076Z,8.07
2023-02-28T12:59:51.481Z,7.49
2023-02-28T13:02:30.482Z,7.51
2023-02-28T13:05:09.498Z,7.37
2023-02-28T13:07:59.419Z,6.88
2023-02-28T13:10:40.244Z,6.92
2023-02-28T13:13:07.904Z,6.74
2023-02-28T13:15:39.266Z,6.94
2023-02-28T13:18:06.784Z,6.97
2023-02-28T13:20:47.909Z,7.18
2023-02-28T13:23:39.641Z,7.22
2023-02-28T13:26:06.820Z,7.01
2023-02-28T13:28:54.243Z,7.37
2023-02-28T13:31:22.072Z,7.08
2023-02-28T13:33:51.631Z,7.35
2023-02-28T13:36:18.550Z,7.69
2023-02-28T13:38:50.577Z,7.59
2023-02-28T13:41:32.626Z,7.90
2023-02-28T13:44:03.164Z,7.84
2023-02-28T13:46:30.614Z,7.71
2023-02-28T13:48:57.750Z,7.34
2023-02-28T13:51:43.233Z,7.77
2023-02-28T13:54:45.168Z,7.46
2023-02-28T13:57:26.891Z,7.62
2023-02-28T14:00:09.522Z,7.77
2023-02-28T14:03:01.131Z,7.60
2023-02-28T14:05:30.860Z,7.37
2023-02-28T14:08:00.666Z,7.15
2023-02-28T14:11:05.446Z,7.62
2023-02-28T14:13:48.312Z,7.86
2023-02-28T14:16:19.192Z,7.91
2023-02-28T14:18:58.982Z,7.11
2023-02-28T14:21:32.218Z,7.00
2023-02-28T14:24:23.734Z,7.16
2023-02-28T14:27:02.581Z,7.28
2023-02-28T14:29:32.461Z,7.25
2023-02-28T14:32:06.465Z,6.97
2023-02-28T14:34:40.657Z,6.75
2023-02-28T14:37:17.545Z,7.27
2023-02-28T14:39:45.761Z,7.04
2023-02-28T14:42:34.688Z,6.61
2023-02-28T14:45:02.306Z,6.59
2023-02-28T14:47:34.931Z,6.68
2023-02-28T14:50:04.832Z,6.61
2023-02-28T14:52:33.668Z,7.04
2023-02-28T14:55:05.123Z,6.62
2023-02-28T14:57:35.104Z,6.75
2023-02-28T15:00:11.999Z,6.74
2023-02-28T15:02:40.593Z,6.79
2023-02-28T15:05:13.462Z,6.92
2023-02-28T15:07:41.094Z,6.61
2023-02-28T15:10:12.023Z,6.65
2023-02-28T15:12:41.684Z,6.75
2023-02-28T15:15:17.465Z,6.53
2023-02-28T15:17:51.658Z,6.65
2023-02-28T15:20:20.023Z,6.38
2023-02-28T15:22:51.240Z,6.95
2023-02-28T15:25:22.669Z,7.11
2023-02-28T15:27:53.988Z,6.69
2023-02-28T15:30:40.198Z,6.75
2023-02-28T15:33:18.328Z,6.95
2023-02-28T15:35:45.880Z,6.73
2023-02-28T15:38:25.813Z,6.42
2023-02-28T15:40:55.685Z,6.66
2023-02-28T15:43:29.145Z,6.92
2023-02-28T15:46:02.256Z,7.03
2023-02-28T15:48:33.782Z,6.39
2023-02-28T15:51:10.062Z,6.44
2023-02-28T15:53:43.378Z,6.45
2023-02-28T15:56:36.610Z,6.89
2023-02-28T15:59:07.337Z,6.64
2023-02-28T16:01:38.945Z,6.65
2023-02-28T16:04:16.146Z,7.08
2023-02-28T16:06:44.159Z,6.57
2023-02-28T16:09:16.053Z,6.79
2023-02-28T16:11:56.173Z,6.51
2023-02-28T16:14:28.065Z,6.89
2023-02-28T16:16:57.571Z,7.00
2023-02-28T16:19:25.180Z,7.01
2023-02-28T16:21:52.398Z,7.11
2023-02-28T16:24:19.582Z,7.08
2023-02-28T16:26:49.645Z,7.08
2023-02-28T16:29:25.777Z,6.44
2023-02-28T16:31:54.620Z,6.56
2023-02-28T16:34:22.606Z,6.80
2023-02-28T16:36:50.729Z,6.79
2023-02-28T16:39:18.322Z,6.92
2023-02-28T16:41:46.983Z,6.81
2023-02-28T16:44:30.373Z,6.88
2023-02-28T16:46:57.636Z,6.77
2023-02-28T16:49:24.869Z,6.70
2023-02-28T16:51:51.982Z,6.45
2023-02-28T16:54:18.977Z,6.63
2023-02-28T16:56:48.082Z,6.75
2023-02-28T16:59:19.451Z,6.49
2023-02-28T17:01:46.765Z,6.81
2023-02-28T17:04:15.321Z,6.55
2023-02-28T17:06:42.761Z,6.13
2023-02-28T17:09:17.305Z,6.19
2023-02-28T17:11:45.601Z,6.27
2023-02-28T17:14:12.668Z,6.40
2023-02-28T17:16:41.204Z,6.50
2023-02-28T17:19:12.877Z,6.81
2023-02-28T17:21:40.300Z,6.47
2023-02-28T17:24:07.788Z,6.29
2023-02-28T17:26:35.074Z,6.67
2023-02-28T17:29:02.237Z,6.53
2023-02-28T17:31:30.479Z,6.34
2023-02-28T17:33:57.854Z,6.55
2023-02-28T17:36:27.588Z,6.63
2023-02-28T17:38:59.649Z,6.70
2023-02-28T17:41:27.633Z,6.68
2023-02-28T17:43:54.738Z,6.39
2023-02-28T17:46:24.453Z,6.09
2023-02-28T17:48:54.147Z,6.42
2023-02-28T17:51:23.939Z,6.38
2023-02-28T17:53:51.098Z,6.75
2023-02-28T17:56:24.260Z,6.72
2023-02-28T17:58:53.451Z,6.54
2023-02-28T18:01:21.786Z,6.68
2023-02-28T18:03:49.371Z,6.43
2023-02-28T18:06:22.033Z,6.06
2023-02-28T18:08:49.758Z,6.28
2023-02-28T18:11:19.688Z,6.47
2023-02-28T18:13:53.952Z,6.53
2023-02-28T18:16:25.018Z,6.66
2023-02-28T18:18:52.190Z,6.43
2023-02-28T18:21:19.328Z,6.86
2023-02-28T18:23:50.219Z,7.06
2023-02-28T18:26:18.845Z,7.10
2023-02-28T18:28:46.519Z,6.97
2023-02-28T18:31:16.564Z,6.66
2023-02-28T18:33:54.045Z,6.66
2023-02-28T18:36:22.803Z,6.98
2023-02-28T18:38:53.552Z,6.62
2023-02-28T18:41:21.788Z,6.19
2023-02-28T18:43:51.438Z,6.56
2023-02-28T18:46:20.341Z,6.62
2023-02-28T18:48:48.277Z,6.82
2023-02-28T18:51:25.240Z,6.98
2023-02-28T18:53:52.861Z,6.73
2023-02-28T18:56:23.531Z,6.53
2023-02-28T18:58:51.571Z,6.31
2023-02-28T19:01:27.094Z,6.53
2023-02-28T19:03:54.477Z,6.60
2023-02-28T19:06:21.720Z,6.54
2023-02-28T19:08:52.963Z,6.23
2023-02-28T19:11:20.457Z,6.06
2023-02-28T19:13:47.860Z,6.13
2023-02-28T19:16:17.504Z,6.31
2023-02-28T19:18:44.965Z,6.68
2023-02-28T19:21:14.512Z,6.88
2023-02-28T19:23:42.476Z,6.82
2023-02-28T19:26:18.498Z,6.67
2023-02-28T19:28:46.107Z,6.67
2023-02-28T19:31:24.872Z,6.92
2023-02-28T19:33:53.158Z,6.81
2023-02-28T19:36:21.446Z,7.14
2023-02-28T19:38:49.426Z,6.87
2023-02-28T19:41:17.569Z,7.41
2023-02-28T19:43:44.958Z,6.98
2023-02-28T19:46:12.540Z,6.60
2023-02-28T19:48:40.434Z,6.79
2023-02-28T19:51:10.700Z,6.98
2023-02-28T19:53:39.405Z,6.96
2023-02-28T19:56:10.679Z,7.03
2023-02-28T19:58:38.749Z,7.32
2023-02-28T20:01:11.213Z,6.60
2023-02-28T20:03:38.741Z,6.76
2023-02-28T20:06:09.917Z,6.96
2023-02-28T20:08:38.276Z,7.04
2023-02-28T20:11:16.034Z,7.15
2023-02-28T20:13:44.493Z,7.07
2023-02-28T20:16:13.244Z,7.02
2023-02-28T20:18:41.767Z,6.97
2023-02-28T20:21:10.681Z,6.72
2023-02-28T20:23:39.215Z,6.93
2023-02-28T20:26:06.553Z,6.46
2023-02-28T20:28:33.990Z,6.74
2023-02-28T20:31:01.281Z,6.80
2023-02-28T20:33:28.603Z,6.51
2023-02-28T20:36:02.062Z,7.07
2023-02-28T20:38:29.339Z,7.18
2023-02-28T20:41:00.169Z,6.88
2023-02-28T20:43:27.982Z,7.12
2023-02-28T20:46:01.968Z,6.80
2023-02-28T20:48:30.968Z,6.23
2023-02-28T20:50:59.489Z,6.61
2023-02-28T20:53:27.949Z,6.76
2023-02-28T20:55:57.381Z,6.20
2023-02-28T20:58:26.498Z,5.97
2023-02-28T21:01:25.915Z,6.26
2023-02-28T21:04:02.134Z,6.38
2023-02-28T21:06:32.510Z,5.90
2023-02-28T21:08:59.773Z,6.40
2023-02-28T21:11:32.292Z,6.70
2023-02-28T21:14:01.445Z,6.72
2023-02-28T21:16:32.113Z,7.12
2023-02-28T21:19:05.321Z,6.84
2023-02-28T21:21:38.525Z,7.28
2023-02-28T21:24:06.488Z,7.54
2023-02-28T21:26:33.771Z,7.52
2023-02-28T21:29:02.919Z,7.26
2023-02-28T21:31:32.556Z,6.88
2023-02-28T21:34:01.070Z,6.84
2023-02-28T21:36:32.979Z,6.37
2023-02-28T21:39:08.426Z,6.44
2023-02-28T21:41:36.545Z,6.48
2023-02-28T21:44:04.591Z,6.17
2023-02-28T21:46:32.253Z,6.68
2023-02-28T21:48:59.591Z,6.88
2023-02-28T21:51:31.359Z,6.87
2023-02-28T21:54:00.273Z,6.69
2023-02-28T21:56:30.398Z,6.76
2023-02-28T21:59:01.033Z,6.42
2023-02-28T22:01:37.286Z,6.35
2023-02-28T22:04:07.403Z,6.23
2023-02-28T22:06:38.317Z,6.50
2023-02-28T22:09:08.252Z,6.29
2023-02-28T22:11:37.456Z,6.77
2023-02-28T22:14:05.305Z,6.94
2023-02-28T22:16:49.604Z,6.78
2023-02-28T22:19:17.967Z,6.48
2023-02-28T22:21:45.866Z,6.63
2023-02-28T22:24:13.000Z,6.93
2023-02-28T22:26:40.233Z,6.47
2023-02-28T22:29:07.536Z,6.39
2023-02-28T22:31:36.177Z,6.25
2023-02-28T22:34:06.700Z,6.88
2023-02-28T22:36:34.389Z,6.90
2023-02-28T22:39:01.979Z,6.79
2023-02-28T22:41:30.053Z,6.86
2023-02-28T22:44:00.010Z,6.86
2023-02-28T22:46:29.868Z,7.02
2023-02-28T22:48:59.002Z,6.58
2023-02-28T22:51:27.337Z,6.89
2023-02-28T22:53:56.133Z,6.96
2023-02-28T22:56:25.424Z,6.98
2023-02-28T22:58:55.412Z,6.88
2023-02-28T23:01:24.372Z,7.07
2023-02-28T23:03:52.787Z,6.71
2023-02-28T23:06:35.101Z,7.11
2023-02-28T23:09:06.814Z,6.76
2023-02-28T23:11:38.376Z,7.08
2023-02-28T23:14:05.687Z,6.72
2023-02-28T23:16:39.897Z,6.73
2023-02-28T23:19:27.865Z,6.90
2023-02-28T23:21:54.950Z,7.24
2023-02-28T23:24:24.316Z,7.32
2023-02-28T23:26:53.914Z,7.10
2023-02-28T23:29:22.390Z,7.00
2023-02-28T23:31:50.539Z,6.88
2023-02-28T23:34:26.426Z,7.47
2023-02-28T23:36:54.905Z,6.52
2023-02-28T23:39:23.121Z,6.37
2023-02-28T23:41:51.013Z,6.76
2023-02-28T23:44:18.250Z,6.84
2023-02-28T23:46:47.048Z,7.07
2023-02-28T23:49:15.209Z,7.08
2023-02-28T23:51:42.490Z,6.86
2023-02-28T23:54:10.115Z,6.61
2023-02-28T23:56:37.303Z,6.58
2023-02-28T23:59:04.421Z,6.30
